Carrilobo, Argentina
Current Conditions -  °F | °C
As of 5:00 AM on Thursday 18 Dec 2014 (Local Time) from SACO Reporting Station
Broken Clouds Broken Clouds  
Wind Chill: 64°   Ceiling: 10000
Heat Index: 64°   Visibility: 6mi
Dew Point: 54°   Wind: 8mph
Humidity: 68%   Direction: 200°SSW
Pressure: 30"   Gusts: NA
Location:  31.87°S, 63.13°W
Report Text: SACO 180800Z 20007KT 9999 SCT008 BKN100 18/12 Q1016
Loading
Personal Weather Stations






























Interactive Weather Map New forecast layout! Learn more

10-Day Weather Forecast

Advertisements
Track Severe Weather on mobile